Time;durP1;ratioP1;P1;durP2;ratioP2;P2;SDS_P1;SDS_P2;PMS_P1;PMS_P2;Temp;Humidity;BMP_temperature;BMP_pressure;BME280_temperature;BME280_humidity;BME280_pressure;Samples;Min_cycle;Max_cycle;Signal;HPM_P1;HPM_P2
2021/09/12 00:00:25;;;;;;;16.83;9.50;;;;;;;;;;6199822;22;20518;-91
2021/09/12 00:03:30;;;;;;;14.70;8.90;;;;;;;;;;6201998;23;20171;-90
2021/09/12 00:06:36;;;;;;;13.55;9.57;;;;;;;;;;6201783;23;20299;-92
2021/09/12 00:09:43;;;;;;;12.57;8.85;;;;;;;;;;6200664;23;20171;-92
2021/09/12 00:12:49;;;;;;;16.08;8.57;;;;;;;;;;6201124;23;20152;-92
2021/09/12 00:15:54;;;;;;;13.15;8.82;;;;;;;;;;6201237;22;20172;-92
2021/09/12 00:19:00;;;;;;;14.52;8.85;;;;;;;;;;6200390;23;20172;-92
2021/09/12 00:22:06;;;;;;;15.65;9.18;;;;;;;;;;6201536;23;20172;-92
2021/09/12 00:25:13;;;;;;;17.40;9.77;;;;;;;;;;6201941;22;20227;-92
2021/09/12 00:28:18;;;;;;;15.10;9.65;;;;;;;;;;6202169;23;20164;-91
2021/09/12 00:31:23;;;;;;;12.88;9.27;;;;;;;;;;6201054;23;20183;-91
2021/09/12 00:34:28;;;;;;;14.63;9.70;;;;;;;;;;6201548;23;20167;-92
2021/09/12 00:37:34;;;;;;;17.35;9.60;;;;;;;;;;6200899;23;20562;-93
2021/09/12 00:40:41;;;;;;;12.98;9.25;;;;;;;;;;6200324;22;20195;-92
2021/09/12 00:43:46;;;;;;;17.58;9.85;;;;;;;;;;6200720;23;20176;-92
2021/09/12 00:46:53;;;;;;;15.82;10.05;;;;;;;;;;6200197;22;20211;-93
2021/09/12 00:49:58;;;;;;;20.92;10.13;;;;;;;;;;6200223;22;20196;-91
2021/09/12 00:53:04;;;;;;;13.90;8.82;;;;;;;;;;6200293;23;20623;-92
2021/09/12 00:56:11;;;;;;;12.55;8.80;;;;;;;;;;6201397;23;20151;-92
2021/09/12 00:59:16;;;;;;;14.68;9.30;;;;;;;;;;6200574;23;20251;-92
2021/09/12 01:02:22;;;;;;;13.00;8.93;;;;;;;;;;6199454;22;20263;-93
2021/09/12 01:05:27;;;;;;;12.75;8.60;;;;;;;;;;6200185;23;20183;-90
2021/09/12 01:08:32;;;;;;;17.40;9.07;;;;;;;;;;6200668;22;20167;-91
2021/09/12 01:11:40;;;;;;;15.90;9.15;;;;;;;;;;6200349;23;20188;-92
2021/09/12 01:14:45;;;;;;;15.70;9.80;;;;;;;;;;6198652;23;20187;-92
2021/09/12 01:17:51;;;;;;;17.23;10.18;;;;;;;;;;6200595;22;20148;-92
2021/09/12 01:20:56;;;;;;;16.20;9.15;;;;;;;;;;6201566;23;20286;-92
2021/09/12 01:24:01;;;;;;;15.35;9.63;;;;;;;;;;6200251;23;20175;-91
2021/09/12 01:27:07;;;;;;;19.30;9.60;;;;;;;;;;6200212;23;20175;-92
2021/09/12 01:30:14;;;;;;;17.27;9.82;;;;;;;;;;6199982;23;20167;-92
2021/09/12 01:33:19;;;;;;;14.30;9.70;;;;;;;;;;6200181;22;20192;-92
2021/09/12 01:36:25;;;;;;;15.73;10.30;;;;;;;;;;6200684;23;20156;-91
2021/09/12 01:39:30;;;;;;;16.50;10.05;;;;;;;;;;6200452;22;20503;-92
2021/09/12 01:42:37;;;;;;;15.90;9.55;;;;;;;;;;6200477;23;20169;-91
2021/09/12 01:45:43;;;;;;;17.42;9.52;;;;;;;;;;6199327;23;20216;-92
2021/09/12 01:48:48;;;;;;;14.35;10.00;;;;;;;;;;6198777;23;20176;-92
2021/09/12 01:51:54;;;;;;;18.23;9.88;;;;;;;;;;6200117;23;20163;-92
2021/09/12 01:54:59;;;;;;;13.77;9.43;;;;;;;;;;6200842;22;20603;-91
2021/09/12 01:58:06;;;;;;;13.82;9.18;;;;;;;;;;6200410;23;20219;-92
2021/09/12 02:01:11;;;;;;;14.35;9.50;;;;;;;;;;6200527;23;20211;-92
2021/09/12 02:04:16;;;;;;;14.75;10.43;;;;;;;;;;6199714;23;20172;-92
2021/09/12 02:07:22;;;;;;;13.40;9.60;;;;;;;;;;6200458;22;20171;-94
2021/09/12 02:10:28;;;;;;;14.20;9.82;;;;;;;;;;6200596;23;20168;-91
2021/09/12 02:13:35;;;;;;;14.02;10.10;;;;;;;;;;6199563;23;20167;-92
2021/09/12 02:16:40;;;;;;;18.13;9.90;;;;;;;;;;6200749;23;20564;-93
2021/09/12 02:19:46;;;;;;;15.52;10.45;;;;;;;;;;6199655;23;20168;-90
2021/09/12 02:22:52;;;;;;;16.73;10.90;;;;;;;;;;6201050;23;20188;-93
2021/09/12 02:25:57;;;;;;;17.20;10.80;;;;;;;;;;6202040;22;20196;-92
2021/09/12 02:29:03;;;;;;;15.05;10.38;;;;;;;;;;6202011;22;20167;-93
2021/09/12 02:32:09;;;;;;;16.02;10.80;;;;;;;;;;6201984;22;20175;-93
2021/09/12 02:35:14;;;;;;;14.52;10.68;;;;;;;;;;6201391;22;20183;-92
2021/09/12 02:38:19;;;;;;;18.10;11.15;;;;;;;;;;6202519;22;20192;-92
2021/09/12 02:41:24;;;;;;;14.48;10.45;;;;;;;;;;6202999;22;20184;-93
2021/09/12 02:44:32;;;;;;;16.55;10.77;;;;;;;;;;6202989;23;20233;-92
2021/09/12 02:47:37;;;;;;;16.13;10.85;;;;;;;;;;6202990;22;20171;-94
2021/09/12 02:50:42;;;;;;;15.00;10.15;;;;;;;;;;6203476;23;20240;-91
2021/09/12 02:53:47;;;;;;;18.33;11.15;;;;;;;;;;6204246;22;20192;-91
2021/09/12 02:56:53;;;;;;;17.33;11.40;;;;;;;;;;6204103;22;20164;-92
2021/09/12 03:00:00;;;;;;;17.48;11.38;;;;;;;;;;6204458;23;20156;-92
2021/09/12 03:03:05;;;;;;;18.45;10.98;;;;;;;;;;6204803;23;20513;-93
2021/09/12 03:06:10;;;;;;;15.07;10.23;;;;;;;;;;6204864;23;20183;-92
2021/09/12 03:09:16;;;;;;;15.52;10.43;;;;;;;;;;6204824;23;20171;-92
2021/09/12 03:12:21;;;;;;;18.58;10.43;;;;;;;;;;6203384;22;20504;-93
2021/09/12 03:15:28;;;;;;;16.48;11.05;;;;;;;;;;6202908;23;20642;-91
2021/09/12 03:18:33;;;;;;;17.23;10.95;;;;;;;;;;6204187;23;20205;-93
2021/09/12 03:21:39;;;;;;;16.45;10.50;;;;;;;;;;6203851;23;20242;-92
2021/09/12 03:24:44;;;;;;;16.02;10.15;;;;;;;;;;6204351;23;20159;-92
2021/09/12 03:27:52;;;;;;;15.02;10.75;;;;;;;;;;6205724;22;20172;-92
2021/09/12 03:31:07;;;;;;;16.30;11.70;;;;;;;;;;6207253;22;20225;-92
2021/09/12 03:34:13;;;;;;;20.35;12.10;;;;;;;;;;6206689;23;20238;-90
2021/09/12 03:37:19;;;;;;;20.23;11.60;;;;;;;;;;6205206;22;20168;-93
2021/09/12 03:40:25;;;;;;;18.17;11.43;;;;;;;;;;6204822;22;20178;-91
2021/09/12 03:43:30;;;;;;;15.52;11.32;;;;;;;;;;6205325;22;20168;-93
2021/09/12 03:46:37;;;;;;;17.00;11.23;;;;;;;;;;6202689;22;20168;-92
2021/09/12 03:49:42;;;;;;;16.35;11.32;;;;;;;;;;6203053;22;20615;-93
2021/09/12 03:52:48;;;;;;;19.42;11.75;;;;;;;;;;6202709;22;20175;-91
2021/09/12 03:55:53;;;;;;;19.33;10.57;;;;;;;;;;6203653;22;20167;-92
2021/09/12 03:58:59;;;;;;;16.98;11.35;;;;;;;;;;6202458;23;20172;-92
2021/09/12 04:02:07;;;;;;;17.17;11.23;;;;;;;;;;6203805;22;20192;-92
2021/09/12 04:05:13;;;;;;;17.70;12.65;;;;;;;;;;6203511;23;20219;-93
2021/09/12 04:08:18;;;;;;;20.05;12.85;;;;;;;;;;6204281;22;20184;-92
2021/09/12 04:11:23;;;;;;;17.17;12.25;;;;;;;;;;6205069;23;20167;-92
2021/09/12 04:14:29;;;;;;;17.80;11.35;;;;;;;;;;6204458;23;20156;-93
2021/09/12 04:17:36;;;;;;;22.80;12.13;;;;;;;;;;6203549;22;20163;-92
2021/09/12 04:20:41;;;;;;;16.58;11.15;;;;;;;;;;6203129;23;20215;-92
2021/09/12 04:23:47;;;;;;;17.55;10.75;;;;;;;;;;6203349;23;20211;-91
2021/09/12 04:26:52;;;;;;;15.18;10.68;;;;;;;;;;6201862;22;20168;-92
2021/09/12 04:29:57;;;;;;;14.90;10.73;;;;;;;;;;6203193;23;20167;-93
2021/09/12 04:33:04;;;;;;;17.90;10.07;;;;;;;;;;6202249;22;20207;-92
2021/09/12 04:36:09;;;;;;;15.35;10.10;;;;;;;;;;6202433;22;20207;-90
2021/09/12 04:39:15;;;;;;;17.33;10.00;;;;;;;;;;6203820;22;20212;-92
2021/09/12 04:42:21;;;;;;;14.50;9.70;;;;;;;;;;6202916;23;20191;-92
2021/09/12 04:45:27;;;;;;;14.75;9.98;;;;;;;;;;6202600;22;20163;-92
2021/09/12 04:48:34;;;;;;;17.08;10.40;;;;;;;;;;6203108;23;20156;-91
2021/09/12 04:51:39;;;;;;;15.75;10.55;;;;;;;;;;6202890;22;20179;-91
2021/09/12 04:54:44;;;;;;;17.23;11.93;;;;;;;;;;6202191;23;20195;-92
2021/09/12 04:57:49;;;;;;;19.73;11.68;;;;;;;;;;6202121;23;20241;-92
2021/09/12 05:00:55;;;;;;;19.02;11.90;;;;;;;;;;6202025;22;20258;-92
2021/09/12 05:04:02;;;;;;;19.15;11.55;;;;;;;;;;6201684;22;20603;-91
2021/09/12 05:07:08;;;;;;;17.10;12.40;;;;;;;;;;6201913;22;20195;-92
2021/09/12 05:10:13;;;;;;;19.27;13.02;;;;;;;;;;6201234;23;20171;-91
2021/09/12 05:13:19;;;;;;;20.30;13.15;;;;;;;;;;6202271;23;20171;-92
2021/09/12 05:16:24;;;;;;;20.33;13.43;;;;;;;;;;6201802;22;20626;-92
2021/09/12 05:19:31;;;;;;;23.20;14.60;;;;;;;;;;6201837;23;20156;-92
2021/09/12 05:22:37;;;;;;;19.60;13.25;;;;;;;;;;6202381;23;20273;-92
2021/09/12 05:25:42;;;;;;;20.27;12.10;;;;;;;;;;6202645;23;20172;-92
2021/09/12 05:28:48;;;;;;;18.30;12.40;;;;;;;;;;6202681;23;20187;-92
2021/09/12 05:31:53;;;;;;;20.27;13.23;;;;;;;;;;6202957;23;20195;-92
2021/09/12 05:35:00;;;;;;;23.40;14.85;;;;;;;;;;6203797;23;20176;-93
2021/09/12 05:38:06;;;;;;;26.67;16.00;;;;;;;;;;6203805;23;20216;-91
2021/09/12 05:41:15;;;;;;;24.67;15.93;;;;;;;;;;6201486;23;20194;-90
2021/09/12 05:44:21;;;;;;;25.15;16.10;;;;;;;;;;6202266;22;20488;-92
2021/09/12 05:47:26;;;;;;;26.27;15.85;;;;;;;;;;6201652;23;20171;-90
2021/09/12 05:50:35;;;;;;;24.85;16.13;;;;;;;;;;6201369;22;20168;-92
2021/09/12 05:53:41;;;;;;;24.98;16.73;;;;;;;;;;6202063;23;20167;-92
2021/09/12 05:56:48;;;;;;;24.70;15.80;;;;;;;;;;6202201;22;20232;-91
2021/09/12 05:59:53;;;;;;;27.65;17.10;;;;;;;;;;6201742;22;20155;-92
2021/09/12 06:02:59;;;;;;;27.25;15.95;;;;;;;;;;6202124;23;20231;-93
2021/09/12 06:06:06;;;;;;;27.25;15.57;;;;;;;;;;6201680;22;20187;-93
2021/09/12 06:09:11;;;;;;;23.27;15.70;;;;;;;;;;6201567;23;20156;-92
2021/09/12 06:12:16;;;;;;;30.40;16.70;;;;;;;;;;6204453;22;20171;-91
2021/09/12 06:15:22;;;;;;;22.77;15.48;;;;;;;;;;6204814;23;20172;-90
2021/09/12 06:18:28;;;;;;;25.35;16.13;;;;;;;;;;6206274;23;20167;-93
2021/09/12 06:21:37;;;;;;;27.60;16.75;;;;;;;;;;6204312;22;20191;-93
2021/09/12 06:24:43;;;;;;;25.50;16.48;;;;;;;;;;6204524;22;20188;-94
2021/09/12 06:27:49;;;;;;;28.63;16.10;;;;;;;;;;6204280;22;20251;-93
2021/09/12 06:30:55;;;;;;;27.55;17.02;;;;;;;;;;6205204;22;20276;-93
2021/09/12 06:34:01;;;;;;;26.70;17.20;;;;;;;;;;6206136;23;20215;-92
2021/09/12 06:37:13;;;;;;;27.92;16.92;;;;;;;;;;6206495;22;20168;-92
2021/09/12 06:40:19;;;;;;;24.95;17.35;;;;;;;;;;6205613;23;20192;-92
2021/09/12 06:43:24;;;;;;;25.75;17.15;;;;;;;;;;6203714;22;20184;-91
2021/09/12 06:46:31;;;;;;;30.35;17.42;;;;;;;;;;6206415;23;20167;-93
2021/09/12 06:49:36;;;;;;;30.10;17.85;;;;;;;;;;6205372;22;20184;-93
2021/09/12 06:52:44;;;;;;;25.98;17.55;;;;;;;;;;6204662;22;20191;-94
2021/09/12 06:55:49;;;;;;;25.77;16.88;;;;;;;;;;6204298;22;20172;-91
2021/09/12 06:58:55;;;;;;;27.52;17.38;;;;;;;;;;6204401;22;20209;-91
2021/09/12 07:02:00;;;;;;;28.08;16.98;;;;;;;;;;6205062;23;20210;-93
2021/09/12 07:05:09;;;;;;;26.85;16.90;;;;;;;;;;6203956;22;20199;-91
2021/09/12 07:08:16;;;;;;;24.98;16.70;;;;;;;;;;6203698;22;20172;-92
2021/09/12 07:11:21;;;;;;;26.25;16.42;;;;;;;;;;6204569;23;20484;-93
2021/09/12 07:14:26;;;;;;;28.13;17.15;;;;;;;;;;6205092;23;20176;-91
2021/09/12 07:17:32;;;;;;;25.38;17.00;;;;;;;;;;6205041;22;20180;-93
2021/09/12 07:20:38;;;;;;;26.85;16.52;;;;;;;;;;6206650;23;20171;-92
2021/09/12 07:23:46;;;;;;;29.63;17.63;;;;;;;;;;6189211;22;20500;-92
2021/09/12 07:26:51;;;;;;;28.10;17.70;;;;;;;;;;6204963;23;20172;-90
2021/09/12 07:29:57;;;;;;;26.35;16.90;;;;;;;;;;6204357;22;20208;-92
2021/09/12 07:33:03;;;;;;;29.15;17.95;;;;;;;;;;6203285;23;20164;-91
2021/09/12 07:36:08;;;;;;;38.10;19.33;;;;;;;;;;6204426;22;20155;-92
2021/09/12 07:39:15;;;;;;;34.28;20.45;;;;;;;;;;6203819;22;20163;-94
2021/09/12 07:42:21;;;;;;;38.60;21.17;;;;;;;;;;6203670;23;20195;-94
2021/09/12 07:45:27;;;;;;;34.13;21.25;;;;;;;;;;6203827;23;20168;-91
2021/09/12 07:48:32;;;;;;;35.25;21.15;;;;;;;;;;6204232;22;20227;-92
2021/09/12 07:51:38;;;;;;;36.13;21.92;;;;;;;;;;6204207;22;20160;-93
2021/09/12 07:54:45;;;;;;;40.63;23.58;;;;;;;;;;6202667;22;20163;-93
2021/09/12 07:57:50;;;;;;;32.75;21.85;;;;;;;;;;6202962;22;20316;-93
2021/09/12 08:00:55;;;;;;;39.10;21.88;;;;;;;;;;6202313;23;20258;-93
2021/09/12 08:04:01;;;;;;;38.80;22.42;;;;;;;;;;6202313;23;20172;-91
2021/09/12 08:07:07;;;;;;;33.33;21.35;;;;;;;;;;6203999;22;20175;-91
2021/09/12 08:10:14;;;;;;;32.70;21.50;;;;;;;;;;6203107;22;20172;-92
2021/09/12 08:13:20;;;;;;;32.45;21.05;;;;;;;;;;6204122;22;20211;-91
2021/09/12 08:16:26;;;;;;;32.65;20.67;;;;;;;;;;6205465;22;20164;-94
2021/09/12 08:19:33;;;;;;;33.45;20.48;;;;;;;;;;6203961;22;20597;-93
2021/09/12 08:22:39;;;;;;;32.03;19.55;;;;;;;;;;6204155;23;20265;-92
2021/09/12 08:25:47;;;;;;;32.70;20.65;;;;;;;;;;6206214;23;20152;-92
2021/09/12 08:28:53;;;;;;;29.35;18.88;;;;;;;;;;6205372;23;20172;-91
2021/09/12 08:31:59;;;;;;;29.17;17.70;;;;;;;;;;6204981;23;20230;-93
2021/09/12 08:35:06;;;;;;;28.92;18.10;;;;;;;;;;6204062;23;20216;-93
2021/09/12 08:38:12;;;;;;;25.45;17.08;;;;;;;;;;6203115;23;20147;-93
2021/09/12 08:41:20;;;;;;;26.73;16.73;;;;;;;;;;6205800;22;20187;-93
2021/09/12 08:44:26;;;;;;;27.35;17.08;;;;;;;;;;6204722;23;20204;-93
2021/09/12 08:47:32;;;;;;;27.40;16.38;;;;;;;;;;6205508;23;20188;-92
2021/09/12 08:50:41;;;;;;;26.10;17.23;;;;;;;;;;6205885;22;20608;-92
2021/09/12 08:53:47;;;;;;;25.50;16.08;;;;;;;;;;6206167;22;20163;-92
2021/09/12 08:57:02;;;;;;;23.25;16.48;;;;;;;;;;6204325;23;20168;-93
2021/09/12 09:00:15;;;;;;;25.83;16.70;;;;;;;;;;6203845;23;20212;-93
2021/09/12 09:03:20;;;;;;;24.60;15.93;;;;;;;;;;6202469;23;20194;-94
2021/09/12 09:06:26;;;;;;;25.52;16.65;;;;;;;;;;6203444;23;20274;-92
2021/09/12 09:09:46;;;;;;;25.90;16.02;;;;;;;;;;6204653;23;20191;-94
2021/09/12 09:12:56;;;;;;;24.02;15.25;;;;;;;;;;6204263;23;20192;-92
2021/09/12 09:16:03;;;;;;;25.30;16.65;;;;;;;;;;6204816;22;20287;-94
2021/09/12 09:19:09;;;;;;;23.77;15.88;;;;;;;;;;6200389;23;20219;-93
2021/09/12 09:22:31;;;;;;;24.20;15.07;;;;;;;;;;6200763;23;20243;-92
2021/09/12 09:25:36;;;;;;;21.40;14.57;;;;;;;;;;6200414;22;20196;-92
2021/09/12 09:28:55;;;;;;;23.50;14.98;;;;;;;;;;6201333;22;20172;-91
2021/09/12 09:32:03;;;;;;;24.50;14.77;;;;;;;;;;6200680;22;20171;-92
2021/09/12 09:35:09;;;;;;;23.05;15.80;;;;;;;;;;6201514;23;20163;-91
2021/09/12 09:38:18;;;;;;;18.92;13.52;;;;;;;;;;6203033;22;20200;-94
2021/09/12 09:41:23;;;;;;;19.25;13.32;;;;;;;;;;6202432;23;20187;-92
2021/09/12 09:44:33;;;;;;;17.17;13.02;;;;;;;;;;6202771;22;20183;-93
2021/09/12 09:51:27;;;;;;;18.58;12.30;;;;;;;;;;6207893;22;20187;-95
2021/09/12 09:54:34;;;;;;;15.02;10.93;;;;;;;;;;6202895;22;20167;-94
2021/09/12 09:57:39;;;;;;;15.27;10.82;;;;;;;;;;6205294;22;20241;-93
2021/09/12 10:00:48;;;;;;;14.45;10.68;;;;;;;;;;6207312;22;20207;-95
2021/09/12 10:03:54;;;;;;;12.75;10.15;;;;;;;;;;6206595;23;20307;-94
2021/09/12 10:07:00;;;;;;;13.10;10.90;;;;;;;;;;6205338;22;20167;-92
2021/09/12 10:10:11;;;;;;;15.18;11.25;;;;;;;;;;6206226;22;20188;-94
2021/09/12 10:13:18;;;;;;;12.05;10.57;;;;;;;;;;6208126;22;20222;-94
2021/09/12 10:16:33;;;;;;;14.98;10.68;;;;;;;;;;6208202;23;20174;-93
2021/09/12 10:19:53;;;;;;;14.35;10.55;;;;;;;;;;6204570;22;20171;-94
2021/09/12 10:23:00;;;;;;;13.60;10.10;;;;;;;;;;6206276;22;20194;-94
2021/09/12 10:26:06;;;;;;;14.90;9.60;;;;;;;;;;6206305;23;20211;-95
2021/09/12 10:29:31;;;;;;;14.02;10.27;;;;;;;;;;6206861;22;20192;-94
2021/09/12 10:36:01;;;;;;;10.55;8.38;;;;;;;;;;6205139;23;20171;-94
2021/09/12 10:39:31;;;;;;;12.38;8.50;;;;;;;;;;6205836;22;20175;-92
2021/09/12 10:42:45;;;;;;;10.60;8.63;;;;;;;;;;6205742;22;20194;-96
2021/09/12 10:46:11;;;;;;;10.40;8.38;;;;;;;;;;6206205;23;20220;-95
2021/09/12 10:49:32;;;;;;;9.73;8.23;;;;;;;;;;6206102;22;20159;-93
2021/09/12 10:52:49;;;;;;;11.95;7.93;;;;;;;;;;6205786;22;20265;-94
2021/09/12 10:56:08;;;;;;;9.43;7.50;;;;;;;;;;6204883;22;20191;-91
2021/09/12 10:59:16;;;;;;;7.72;5.80;;;;;;;;;;6206504;23;20160;-93
2021/09/12 11:02:22;;;;;;;6.00;4.95;;;;;;;;;;6205161;23;20264;-94
2021/09/12 11:05:44;;;;;;;5.95;4.97;;;;;;;;;;6206951;23;20175;-95
2021/09/12 11:08:51;;;;;;;7.38;4.40;;;;;;;;;;6206975;22;20167;-94
2021/09/12 11:11:58;;;;;;;3.30;3.00;;;;;;;;;;6205992;23;20175;-94
2021/09/12 11:15:03;;;;;;;6.57;3.45;;;;;;;;;;6202798;23;20174;-94
2021/09/12 11:18:09;;;;;;;6.65;3.65;;;;;;;;;;6202479;23;20171;-93
2021/09/12 11:21:24;;;;;;;6.05;3.60;;;;;;;;;;6203581;23;20175;-94
2021/09/12 11:24:31;;;;;;;4.43;3.63;;;;;;;;;;6201723;22;20195;-92
2021/09/12 11:27:36;;;;;;;4.53;3.63;;;;;;;;;;6201474;23;20155;-92
2021/09/12 11:30:42;;;;;;;4.97;3.47;;;;;;;;;;6201583;23;20178;-93
2021/09/12 11:33:52;;;;;;;3.40;2.70;;;;;;;;;;6202796;23;20168;-94
2021/09/12 11:36:59;;;;;;;3.45;2.88;;;;;;;;;;6203835;23;20175;-92
2021/09/12 11:40:07;;;;;;;4.07;2.55;;;;;;;;;;6202159;23;20220;-92
2021/09/12 11:43:16;;;;;;;3.08;2.35;;;;;;;;;;6202869;23;20248;-93
2021/09/12 11:46:21;;;;;;;3.03;2.70;;;;;;;;;;6204274;23;20268;-93
2021/09/12 11:49:27;;;;;;;3.38;2.63;;;;;;;;;;6202100;23;20163;-93
2021/09/12 11:52:33;;;;;;;6.65;4.43;;;;;;;;;;6202689;23;20182;-95
2021/09/12 11:55:43;;;;;;;3.30;2.85;;;;;;;;;;6202643;23;20171;-92
2021/09/12 11:58:49;;;;;;;4.63;2.90;;;;;;;;;;6202050;23;20221;-91
2021/09/12 12:01:56;;;;;;;3.90;2.90;;;;;;;;;;6202412;23;20224;-93
2021/09/12 12:05:02;;;;;;;2.92;2.08;;;;;;;;;;6203387;23;20172;-92
2021/09/12 12:08:10;;;;;;;2.70;2.30;;;;;;;;;;6201311;23;20199;-94
2021/09/12 12:11:17;;;;;;;3.72;2.45;;;;;;;;;;6202827;23;20233;-91
2021/09/12 12:14:25;;;;;;;5.13;2.17;;;;;;;;;;6206611;22;20270;-92
2021/09/12 12:17:35;;;;;;;3.25;2.42;;;;;;;;;;6204598;22;20151;-94
2021/09/12 12:20:42;;;;;;;2.10;1.90;;;;;;;;;;6206131;22;20169;-93
2021/09/12 12:27:15;;;;;;;3.47;2.40;;;;;;;;;;6206555;23;20151;-92
2021/09/12 12:33:44;;;;;;;3.30;2.15;;;;;;;;;;6205506;23;20259;-93
2021/09/12 12:36:51;;;;;;;3.00;2.00;;;;;;;;;;6205149;22;20210;-94
2021/09/12 12:39:59;;;;;;;2.63;1.65;;;;;;;;;;6205905;22;20211;-93
2021/09/12 12:43:07;;;;;;;2.53;2.00;;;;;;;;;;6204767;22;20231;-94
2021/09/12 12:46:16;;;;;;;2.65;2.28;;;;;;;;;;6205348;22;20223;-91
2021/09/12 12:49:26;;;;;;;2.70;2.20;;;;;;;;;;6203825;22;20217;-95
2021/09/12 12:52:37;;;;;;;2.35;2.00;;;;;;;;;;6204471;23;20191;-92
2021/09/12 12:55:44;;;;;;;2.97;2.25;;;;;;;;;;6203480;23;20264;-93
2021/09/12 22:00:43;;;;;;;13.65;6.05;;;;;;;;;;6122617;23;20196;-91
2021/09/12 22:08:10;;;;;;;9.75;6.45;;;;;;;;;;6177117;23;20156;-91
2021/09/12 22:11:16;;;;;;;12.02;6.07;;;;;;;;;;6176170;23;20168;-89
2021/09/12 22:14:23;;;;;;;12.68;6.45;;;;;;;;;;6175717;23;20200;-91
2021/09/12 22:17:32;;;;;;;13.35;6.50;;;;;;;;;;6175815;23;20168;-91
2021/09/12 22:20:39;;;;;;;9.40;6.00;;;;;;;;;;6176420;23;20208;-89
2021/09/12 22:23:49;;;;;;;10.45;6.07;;;;;;;;;;6175086;23;20196;-91
2021/09/12 22:26:56;;;;;;;11.93;6.60;;;;;;;;;;6176733;23;20221;-90
2021/09/12 22:30:03;;;;;;;10.90;5.88;;;;;;;;;;6173705;23;20239;-92
2021/09/12 22:33:10;;;;;;;11.52;6.00;;;;;;;;;;6170820;23;20219;-90
2021/09/12 22:36:21;;;;;;;11.25;6.50;;;;;;;;;;6172378;23;20172;-91
2021/09/12 22:39:29;;;;;;;11.32;5.70;;;;;;;;;;6172481;23;20248;-92
2021/09/12 22:42:35;;;;;;;10.40;6.03;;;;;;;;;;6172161;23;20192;-93
2021/09/12 22:45:40;;;;;;;11.85;6.13;;;;;;;;;;6172664;23;20252;-90
2021/09/12 22:48:46;;;;;;;11.27;5.93;;;;;;;;;;6172046;23;20171;-89
2021/09/12 22:51:51;;;;;;;9.27;6.03;;;;;;;;;;6171436;23;20176;-89
2021/09/12 22:55:00;;;;;;;15.68;6.78;;;;;;;;;;6173954;23;20209;-90
2021/09/12 22:58:05;;;;;;;12.82;7.07;;;;;;;;;;6174503;23;20152;-92
2021/09/12 23:01:11;;;;;;;12.85;6.35;;;;;;;;;;6175471;23;20195;-91
2021/09/12 23:04:16;;;;;;;10.23;6.32;;;;;;;;;;6172905;23;20192;-90
2021/09/12 23:07:21;;;;;;;9.15;6.28;;;;;;;;;;6172824;23;20246;-91
2021/09/12 23:10:31;;;;;;;13.52;6.03;;;;;;;;;;6173303;23;20244;-90
2021/09/12 23:13:37;;;;;;;9.18;6.28;;;;;;;;;;6173322;23;20205;-91
2021/09/12 23:16:42;;;;;;;9.45;6.55;;;;;;;;;;6173753;23;20176;-89
2021/09/12 23:19:48;;;;;;;9.85;6.43;;;;;;;;;;6173450;23;20239;-92
2021/09/12 23:22:53;;;;;;;11.15;6.55;;;;;;;;;;6172583;23;20173;-91
2021/09/12 23:26:00;;;;;;;9.20;6.30;;;;;;;;;;6170499;23;20255;-92
2021/09/12 23:29:06;;;;;;;11.98;6.70;;;;;;;;;;6170659;23;20615;-91
2021/09/12 23:32:12;;;;;;;17.30;7.10;;;;;;;;;;6170627;23;20173;-90
2021/09/12 23:35:17;;;;;;;9.80;6.60;;;;;;;;;;6169857;23;20164;-92
2021/09/12 23:38:22;;;;;;;10.55;6.93;;;;;;;;;;6170880;23;20172;-89
2021/09/12 23:41:29;;;;;;;11.20;6.78;;;;;;;;;;6171292;23;20226;-91
2021/09/12 23:44:34;;;;;;;13.07;6.55;;;;;;;;;;6171906;23;20201;-92
2021/09/12 23:47:40;;;;;;;13.02;7.07;;;;;;;;;;6172002;23;20168;-91
2021/09/12 23:50:45;;;;;;;10.30;6.40;;;;;;;;;;6189017;23;20168;-92
2021/09/12 23:53:50;;;;;;;12.52;6.32;;;;;;;;;;6170872;23;20663;-90
2021/09/12 23:56:57;;;;;;;12.88;6.20;;;;;;;;;;6171255;23;20259;-89
